Volkel Air Base

EHVK · 北布拉班特省, 荷兰

罗盘
风向 的 风向 的 风向 到 风向 190° Volkel Air Base 6R/24L
风: 15 kt, 4 beaufort

10 kt

11 kt
改变
0 ft 1.000 2.000 3.000 4.000 5.000
Cloud Cloud
FEW 900
Cloud Cloud Cloud Cloud
SCT 1.100
Cloud Cloud Cloud Cloud Cloud Cloud
BKN 1.300
METAR EHVK 211856Z AUTO 19015KT 160V230 9999 -RA FEW009 SCT011 BKN013 08/07 Q1003 GRN

METAR Volkel Air Base - EHVK/UDE

Volkel Air Base是,荷兰中的中型机场。 该机场位于纬度51,65640和经度5,70862。 该机场有2条跑道: 6R/24L 和 6L/24R. 本场的ICAO机场代码为EHVK。 该机场的IATA代码为UDE。 机场在Amsterdam FIR中。

该航空气象观测是针对Volkel Air Base在2024年2月21日 19:56, 当地时间进行的。

机场观察

风向为190°,速度为15 kt。 风向在160°和230°之间变化。

可见度为10 km 或者更多。

有几云在900 ft的高度, 疏云,零星散落的云朵在1.100 ft的高度 和 碎云在1.300 ft的高度。 破损或更高的上限为1.300 ft。

当前天气为光 雨。 温度为8 °C,阵风为2 °C。 露点为7 °C,相对湿度为93%。 海平面上的气压为1003 hPa (QNH)。

白天

今天,太阳从07:40升起,在18:01降落。 这适用于Volkel Air Base,世界夏令时可能有所不同。 当地时间与世界标准时间之间的时差为+1 小时。 当前,没有夏令时有效。

公司介绍

我们没有关于这个机场的公司信息。

体会

在这个机场有专业的飞行模拟器。 如果你愿意,你可以在这些模拟器中预订一个课程。 这个机场最受欢迎的模拟机类型是F16 simulator。 一节课的价格从€ 90开始。 你可以在这里预订F16 simulator

跑道

Id 标题 侧风 逆风 侧风 %
6R/24L 057°-237° 11 kt 10 kt 73 %
6L/24R 057°-237° 11 kt 10 kt 73 %

逆风成分最大的方向会被突出显示,并用于横风计算。 这并不一定意味着这个方向在使用。

乌云

900 ft FEW 几云
1.100 ft SCT 疏云,零星散落的云朵
1.300 ft BKN 碎云

温度 & 天气

天气 光 雨
温度 8 °C
露点 7 °C
相对湿度 93%
风寒 2 °C
Kp-index 1 (0-9)

白天

日出
07:40 (11:25)
中午
12:50
日落
18:01

小工具

你想在你的网站上有一个关于Volkel Air Base的当前航空天气(METAR)的小部件吗?

显示HTML代码
?>